Time;durP1;ratioP1;P1;durP2;ratioP2;P2;SDS_P1;SDS_P2;PMS_P1;PMS_P2;Temp;Humidity;BMP_temperature;BMP_pressure;BME280_temperature;BME280_humidity;BME280_pressure;Samples;Min_cycle;Max_cycle;Signal;HPM_P1;HPM_P2
2022/05/26 00:00:03;;;;;;;0.82;0.10;;;16.90;71.70;;;;;;10352888;28;20045;-58
2022/05/26 00:05:05;;;;;;;0.57;0.20;;;16.90;71.10;;;;;;10347323;28;20046;-59
2022/05/26 00:10:07;;;;;;;0.77;0.10;;;16.80;71.00;;;;;;10346869;28;20049;-57
2022/05/26 00:15:10;;;;;;;1.73;0.10;;;16.80;71.20;;;;;;10345184;28;20057;-58
2022/05/26 00:20:12;;;;;;;0.50;0.20;;;16.80;71.80;;;;;;10352992;28;20108;-58
2022/05/26 00:25:14;;;;;;;0.47;0.10;;;16.70;73.40;;;;;;10342893;28;21097;-58
2022/05/26 00:30:16;;;;;;;1.98;0.13;;;16.70;74.70;;;;;;10350713;28;20096;-58
2022/05/26 00:35:18;;;;;;;1.10;0.17;;;16.60;75.50;;;;;;10353205;28;20046;-58
2022/05/26 00:40:20;;;;;;;0.80;0.20;;;16.60;76.20;;;;;;10352300;28;20054;-58
2022/05/26 00:45:21;;;;;;;3.33;0.15;;;16.50;76.90;;;;;;10355056;28;20111;-58
2022/05/26 00:50:28;;;;;;;3.20;0.20;;;16.50;77.20;;;;;;10353448;28;20050;-57
2022/05/26 00:55:36;;;;;;;1.63;0.10;;;16.40;77.00;;;;;;10350980;28;20058;-58
2022/05/26 01:00:38;;;;;;;0.70;0.10;;;16.40;77.50;;;;;;10344102;28;20492;-58
2022/05/26 01:05:51;;;;;;;0.52;0.10;;;16.30;77.50;;;;;;10350782;28;20108;-57
2022/05/26 01:10:53;;;;;;;1.27;0.10;;;16.30;78.50;;;;;;10348102;28;20061;-58
2022/05/26 01:16:10;;;;;;;3.15;0.20;;;16.20;79.10;;;;;;10349088;28;20100;-58
2022/05/26 01:21:19;;;;;;;1.07;0.20;;;16.20;80.20;;;;;;10349934;28;20049;-58
2022/05/26 01:26:58;;;;;;;0.43;0.20;;;16.10;82.20;;;;;;10349285;28;20104;-58
2022/05/26 01:32:21;;;;;;;1.40;0.30;;;16.10;82.60;;;;;;10349043;28;20107;-58
2022/05/26 01:37:37;;;;;;;2.10;0.20;;;16.00;83.40;;;;;;10350741;28;20041;-58
2022/05/26 01:43:04;;;;;;;0.40;0.10;;;16.00;83.60;;;;;;10346304;28;20053;-58
2022/05/26 01:48:13;;;;;;;1.27;0.28;;;16.10;83.90;;;;;;10350283;28;20114;-58
2022/05/26 01:54:05;;;;;;;1.15;0.50;;;16.00;84.20;;;;;;10347855;28;20738;-57
2022/05/26 01:59:15;;;;;;;0.40;0.10;;;16.00;84.40;;;;;;10338211;28;20050;-57
2022/05/26 02:04:23;;;;;;;0.88;0.10;;;16.00;85.00;;;;;;10352051;28;20119;-58
2022/05/26 02:09:29;;;;;;;0.75;0.10;;;15.90;85.40;;;;;;10348832;28;20050;-58
2022/05/26 02:14:45;;;;;;;2.05;0.20;;;15.80;85.80;;;;;;10349609;28;20068;-58
2022/05/26 02:19:51;;;;;;;0.03;0.03;;;15.70;86.80;;;;;;10349831;28;20046;-58
2022/05/26 02:25:03;;;;;;;1.33;0.10;;;15.70;87.20;;;;;;10349583;28;20153;-59
2022/05/26 02:30:07;;;;;;;1.90;0.15;;;15.60;87.30;;;;;;10348704;28;21006;-58
2022/05/26 02:35:15;;;;;;;0.57;0.25;;;15.50;87.80;;;;;;10349696;28;20046;-58
2022/05/26 02:40:17;;;;;;;0.82;0.20;;;15.50;88.40;;;;;;10364246;28;20061;-58
2022/05/26 02:45:54;;;;;;;0.75;0.10;;;15.40;89.40;;;;;;10347146;28;20054;-58
2022/05/26 02:51:16;;;;;;;0.65;0.10;;;15.30;90.00;;;;;;10333004;28;20053;-58
2022/05/26 02:56:29;;;;;;;0.20;0.10;;;15.20;90.50;;;;;;10348416;28;20045;-58
2022/05/26 03:01:54;;;;;;;0.98;0.10;;;15.10;91.00;;;;;;10347268;28;20065;-59
2022/05/26 03:07:00;;;;;;;2.17;0.10;;;15.10;91.70;;;;;;10347499;28;20070;-59
2022/05/26 03:12:02;;;;;;;0.20;0.10;;;15.00;92.10;;;;;;10349061;28;20057;-59
2022/05/26 03:17:04;;;;;;;3.28;0.20;;;14.90;92.10;;;;;;10348000;28;20110;-57
2022/05/26 03:22:05;;;;;;;3.60;0.10;;;14.90;92.60;;;;;;10348170;28;20476;-58
2022/05/26 03:27:07;;;;;;;1.55;0.10;;;14.80;93.60;;;;;;10347737;28;20049;-61
2022/05/26 03:32:09;;;;;;;1.65;0.20;;;14.80;94.00;;;;;;10348423;28;20071;-60
2022/05/26 03:42:32;;;;;;;1.98;0.28;;;14.70;94.80;;;;;;10345500;28;20483;-60
2022/05/26 03:47:34;;;;;;;2.30;0.28;;;14.60;95.50;;;;;;10348336;28;20054;-60
2022/05/26 03:52:36;;;;;;;0.70;0.20;;;14.60;96.20;;;;;;10352668;28;20507;-60
2022/05/26 03:57:38;;;;;;;0.30;0.10;;;14.50;96.30;;;;;;10355979;28;20092;-60
2022/05/26 04:02:40;;;;;;;2.47;0.30;;;14.50;96.50;;;;;;10356850;28;20061;-61
2022/05/26 04:07:41;;;;;;;3.30;0.20;;;14.50;97.00;;;;;;10355023;28;20045;-60
2022/05/26 04:12:43;;;;;;;0.10;0.10;;;14.60;97.00;;;;;;10353926;28;20058;-61
2022/05/26 04:17:45;;;;;;;2.35;0.13;;;14.70;96.90;;;;;;10354265;28;20146;-61
2022/05/26 04:22:47;;;;;;;0.43;0.10;;;14.70;97.00;;;;;;10354885;28;20049;-60
2022/05/26 04:27:50;;;;;;;1.08;0.20;;;14.80;96.80;;;;;;10352660;28;20104;-60
2022/05/26 04:32:51;;;;;;;0.40;0.20;;;14.80;96.90;;;;;;10352053;28;20052;-60
2022/05/26 04:37:53;;;;;;;0.90;0.10;;;14.90;96.70;;;;;;10353022;28;20049;-61
2022/05/26 04:42:55;;;;;;;4.00;0.10;;;15.00;96.70;;;;;;10352156;28;20116;-60
2022/05/26 04:47:58;;;;;;;0.10;0.10;;;15.10;96.00;;;;;;10353665;28;20045;-60
2022/05/26 04:53:00;;;;;;;0.30;0.10;;;15.10;96.30;;;;;;10351905;28;20153;-61
2022/05/26 04:58:01;;;;;;;0.17;0.10;;;15.20;96.10;;;;;;10349471;28;20077;-60
2022/05/26 05:03:03;;;;;;;5.53;0.17;;;15.30;96.30;;;;;;10353638;28;20054;-60
2022/05/26 05:08:05;;;;;;;0.57;0.10;;;15.40;96.30;;;;;;10351930;28;20504;-60
2022/05/26 05:13:09;;;;;;;5.47;0.20;;;15.50;96.20;;;;;;10352294;28;20038;-60
2022/05/26 05:18:10;;;;;;;1.50;0.10;;;15.60;95.30;;;;;;10351734;28;20056;-60
2022/05/26 05:23:13;;;;;;;0.52;0.10;;;15.70;95.50;;;;;;10352756;28;20042;-60
2022/05/26 05:28:17;;;;;;;0.20;0.10;;;15.80;95.00;;;;;;10350903;28;20113;-60
2022/05/26 05:33:39;;;;;;;0.10;0.10;;;15.70;94.70;;;;;;10347528;28;20374;-62
2022/05/26 05:38:41;;;;;;;0.75;0.10;;;15.70;95.50;;;;;;10349072;28;20042;-60
2022/05/26 05:43:43;;;;;;;0.17;0.00;;;15.80;95.20;;;;;;10350108;28;20493;-60
2022/05/26 05:48:45;;;;;;;0.32;0.10;;;15.80;94.90;;;;;;10351413;28;20057;-61
2022/05/26 05:53:47;;;;;;;0.35;0.10;;;16.00;95.00;;;;;;10360073;28;20082;-60
2022/05/26 05:58:48;;;;;;;0.10;0.00;;;16.30;95.00;;;;;;10344630;28;20060;-60
2022/05/26 06:03:51;;;;;;;0.10;0.10;;;16.50;93.50;;;;;;10347695;28;20065;-60
2022/05/26 06:08:53;;;;;;;1.17;0.05;;;16.50;93.40;;;;;;10348876;28;20069;-60
2022/05/26 06:13:55;;;;;;;3.58;0.10;;;16.50;93.70;;;;;;10349416;28;20088;-61
2022/05/26 06:18:56;;;;;;;0.10;0.00;;;16.60;93.60;;;;;;10344619;28;20049;-61
2022/05/26 06:23:58;;;;;;;0.35;0.10;;;16.60;93.60;;;;;;10349375;28;20622;-61
2022/05/26 06:39:42;;;;;;;0.10;0.00;;;16.80;92.90;;;;;;10346803;28;20108;-60
2022/05/26 06:44:45;;;;;;;0.80;0.10;;;16.80;93.10;;;;;;10347497;28;20070;-60
2022/05/26 06:49:47;;;;;;;0.85;0.05;;;16.80;92.60;;;;;;10346758;28;20398;-61
2022/05/26 06:54:49;;;;;;;0.20;0.10;;;16.80;92.70;;;;;;10346128;28;20489;-61
2022/05/26 06:59:51;;;;;;;0.60;0.05;;;16.80;93.10;;;;;;10342037;28;20046;-61
2022/05/26 07:04:53;;;;;;;0.60;0.08;;;17.00;93.00;;;;;;10348084;28;20049;-61
2022/05/26 07:09:56;;;;;;;0.10;0.10;;;17.10;92.70;;;;;;10342667;28;20056;-60
2022/05/26 07:14:59;;;;;;;0.10;0.10;;;17.10;92.70;;;;;;10340623;28;20054;-61
2022/05/26 07:20:01;;;;;;;0.30;0.10;;;17.20;92.00;;;;;;10346570;28;20050;-61
2022/05/26 07:25:04;;;;;;;0.50;0.10;;;17.30;90.50;;;;;;10347363;28;20104;-61
2022/05/26 07:30:10;;;;;;;0.08;0.05;;;17.40;90.70;;;;;;10359005;28;20056;-60
2022/05/26 07:35:11;;;;;;;0.85;0.00;;;17.80;88.70;;;;;;10358821;28;20054;-61
2022/05/26 07:45:35;;;;;;;0.10;0.00;;;17.70;85.00;;;;;;10357047;28;20049;-61
2022/05/26 07:50:37;;;;;;;0.22;0.00;;;17.60;85.60;;;;;;10355516;28;20100;-62
2022/05/26 07:55:42;;;;;;;2.17;0.10;;;17.80;83.00;;;;;;10360762;28;20065;-62
2022/05/26 08:00:44;;;;;;;0.63;0.10;;;18.10;81.40;;;;;;10358322;28;20062;-62
2022/05/26 08:05:46;;;;;;;0.68;0.10;;;18.20;78.10;;;;;;10361667;28;20050;-62
2022/05/26 08:10:47;;;;;;;0.20;0.10;;;18.10;78.90;;;;;;10357344;28;20088;-62
2022/05/26 08:15:50;;;;;;;1.38;0.10;;;18.10;79.10;;;;;;10359519;28;20409;-62
2022/05/26 08:20:52;;;;;;;0.80;0.10;;;18.30;83.20;;;;;;10356852;28;20054;-60
2022/05/26 08:25:54;;;;;;;1.25;0.10;;;18.40;81.70;;;;;;10358158;28;20049;-60
2022/05/26 08:30:55;;;;;;;5.30;0.10;;;18.30;83.00;;;;;;10356857;28;20136;-60
2022/05/26 08:36:02;;;;;;;0.52;0.00;;;18.40;84.20;;;;;;10360159;28;20100;-60
2022/05/26 08:41:05;;;;;;;2.60;0.20;;;18.30;82.50;;;;;;10353595;28;20118;-60
2022/05/26 08:46:17;;;;;;;0.55;0.15;;;18.80;81.80;;;;;;10350444;28;20042;-60
2022/05/26 08:51:41;;;;;;;0.20;0.10;;;19.20;81.60;;;;;;10352239;28;20072;-62
2022/05/26 08:56:45;;;;;;;0.38;0.10;;;18.90;77.30;;;;;;10348381;28;20050;-62
2022/05/26 09:01:47;;;;;;;0.68;0.10;;;18.90;77.80;;;;;;10351710;28;20049;-62
2022/05/26 09:17:30;;;;;;;1.50;0.10;;;18.50;78.40;;;;;;10349279;28;20057;-62
2022/05/26 09:22:46;;;;;;;0.35;0.00;;;18.50;77.70;;;;;;10351860;28;20135;-62
2022/05/26 09:27:51;;;;;;;1.10;0.10;;;18.60;78.10;;;;;;10351789;28;20057;-62
2022/05/26 09:32:54;;;;;;;0.28;0.10;;;18.70;75.70;;;;;;10350279;28;20045;-62
2022/05/26 09:38:01;;;;;;;2.13;0.10;;;18.90;74.60;;;;;;10348999;28;20100;-62
2022/05/26 09:43:18;;;;;;;0.60;0.10;;;19.00;76.10;;;;;;10343733;28;20112;-62
2022/05/26 09:48:29;;;;;;;1.85;0.10;;;18.80;75.00;;;;;;10349389;28;20046;-61
2022/05/26 09:53:38;;;;;;;2.05;0.10;;;19.20;75.20;;;;;;10349368;28;20049;-61
2022/05/26 09:58:43;;;;;;;0.75;0.10;;;19.70;71.10;;;;;;10350356;28;20050;-63
2022/05/26 10:04:17;;;;;;;1.27;0.10;;;19.70;70.40;;;;;;10348295;28;20053;-61
2022/05/26 10:09:47;;;;;;;0.30;0.10;;;19.60;71.60;;;;;;10345330;28;20048;-60
2022/05/26 10:15:19;;;;;;;1.45;0.10;;;19.20;72.80;;;;;;10346019;28;20132;-60
2022/05/26 10:20:35;;;;;;;0.98;0.13;;;19.10;73.40;;;;;;10344624;28;20439;-62
2022/05/26 10:25:46;;;;;;;1.55;0.10;;;19.10;74.20;;;;;;10346898;28;20177;-62
2022/05/26 10:31:03;;;;;;;0.82;0.10;;;19.10;74.10;;;;;;10349187;28;20050;-61
2022/05/26 10:36:26;;;;;;;2.83;0.10;;;19.30;73.80;;;;;;10347623;28;20924;-61
2022/05/26 10:41:34;;;;;;;0.77;0.20;;;19.50;73.60;;;;;;10328502;28;20044;-60
2022/05/26 10:46:42;;;;;;;1.85;0.10;;;19.70;71.40;;;;;;10347606;28;20394;-61
2022/05/26 10:51:55;;;;;;;0.50;0.10;;;19.90;70.70;;;;;;10348923;28;20046;-62
2022/05/26 10:57:25;;;;;;;3.38;0.20;;;20.40;69.20;;;;;;10320991;28;20050;-64
2022/05/26 11:02:46;;;;;;;2.05;0.20;;;20.20;68.70;;;;;;10331547;28;20051;-67
2022/05/26 11:07:53;;;;;;;0.45;0.10;;;20.30;69.00;;;;;;10340594;28;20057;-64
2022/05/26 11:13:07;;;;;;;0.32;0.15;;;20.30;69.50;;;;;;10341669;28;20053;-65
2022/05/26 11:18:26;;;;;;;0.88;0.10;;;20.30;68.60;;;;;;10345561;28;20342;-64
2022/05/26 11:23:36;;;;;;;1.48;0.10;;;20.70;68.00;;;;;;10341817;28;20054;-60
2022/05/26 11:28:44;;;;;;;0.57;0.10;;;20.90;66.70;;;;;;10342386;28;20724;-62
2022/05/26 11:39:22;;;;;;;2.55;0.30;;;21.50;65.30;;;;;;10339520;28;20611;-62
2022/05/26 11:44:38;;;;;;;2.22;0.20;;;22.50;62.40;;;;;;10341469;28;20112;-62
2022/05/26 11:49:42;;;;;;;0.43;0.17;;;22.80;61.00;;;;;;10332458;28;20105;-61
2022/05/26 11:54:58;;;;;;;0.90;0.20;;;22.90;58.40;;;;;;10341874;28;20077;-61
2022/05/26 12:00:15;;;;;;;0.50;0.10;;;23.10;55.10;;;;;;10343588;28;20141;-64
2022/05/26 12:05:29;;;;;;;3.10;0.93;;;23.10;56.40;;;;;;10344056;28;20069;-64
2022/05/26 12:10:49;;;;;;;0.73;0.40;;;23.70;56.00;;;;;;10336380;28;20049;-64
2022/05/26 12:16:18;;;;;;;4.45;0.25;;;23.50;56.80;;;;;;10332020;23;20060;-92
2022/05/26 12:21:29;;;;;;;1.77;0.10;;;23.50;56.40;;;;;;10261237;28;20408;-89
2022/05/26 12:26:50;;;;;;;0.30;0.30;;;22.90;57.90;;;;;;10284691;28;20061;-87
2022/05/26 12:32:11;;;;;;;0.75;0.30;;;23.20;55.50;;;;;;10289216;28;20346;-86
2022/05/26 12:37:38;;;;;;;0.22;0.10;;;23.10;56.00;;;;;;10298896;28;20043;-86
2022/05/26 12:42:56;;;;;;;2.40;0.13;;;23.30;55.60;;;;;;10271113;28;20050;-87
2022/05/26 12:48:03;;;;;;;3.80;0.20;;;23.50;55.50;;;;;;10302856;28;20130;-89
2022/05/26 12:53:32;;;;;;;2.95;0.50;;;24.20;55.20;;;;;;10275446;28;20117;-89
2022/05/26 12:58:47;;;;;;;1.25;0.20;;;24.80;52.10;;;;;;10278587;28;20054;-87
2022/05/26 13:03:56;;;;;;;;;;;24.80;51.50;;;;;;10292803;28;20527;-86
2022/05/26 13:09:30;;;;;;;0.45;0.10;;;24.60;50.60;;;;;;10304256;28;19921;-86
2022/05/26 13:14:44;;;;;;;1.23;0.10;;;24.40;52.10;;;;;;10289510;28;20145;-85
2022/05/26 13:19:48;;;;;;;2.97;0.17;;;24.10;53.10;;;;;;10275141;28;20648;-87
2022/05/26 13:24:55;;;;;;;0.20;0.10;;;23.40;53.80;;;;;;10287710;28;20053;-86
2022/05/26 13:33:07;;;;;;;0.77;0.20;;;23.20;54.50;;;;;;10295715;28;20060;-87
2022/05/26 13:35:20;;;;;;;0.10;0.00;;;23.20;55.00;;;;;;10311897;28;20056;-86
2022/05/26 13:40:28;;;;;;;1.63;0.30;;;23.30;55.20;;;;;;10307456;28;20137;-86
2022/05/26 13:45:34;;;;;;;6.00;0.15;;;23.90;54.90;;;;;;10261987;28;20093;-86
2022/05/26 13:50:47;;;;;;;0.52;0.10;;;24.40;52.40;;;;;;10304695;28;20416;-86
2022/05/26 13:55:52;;;;;;;0.60;0.10;;;23.70;53.20;;;;;;10288297;28;20065;-88
2022/05/26 14:01:05;;;;;;;0.80;0.10;;;23.90;52.70;;;;;;10295094;28;20151;-87
2022/05/26 14:06:28;;;;;;;1.23;0.10;;;23.30;53.90;;;;;;10285984;28;20074;-87
2022/05/26 14:11:40;;;;;;;0.63;0.05;;;23.30;54.40;;;;;;10272596;28;20107;-87
2022/05/26 14:16:48;;;;;;;1.00;0.10;;;22.90;54.50;;;;;;10266312;28;20120;-86
2022/05/26 14:21:51;;;;;;;1.48;0.15;;;22.80;54.40;;;;;;10281475;28;20050;-85
2022/05/26 14:27:17;;;;;;;2.85;0.10;;;22.60;54.90;;;;;;10287253;28;20455;-86
2022/05/26 14:32:31;;;;;;;0.70;0.10;;;22.60;54.90;;;;;;10280325;28;20065;-85
2022/05/26 14:37:33;;;;;;;1.35;0.22;;;22.80;55.50;;;;;;10283682;28;20054;-85
2022/05/26 14:42:40;;;;;;;0.45;0.10;;;22.50;55.00;;;;;;10295754;28;20054;-86
2022/05/26 14:47:42;;;;;;;0.55;0.15;;;22.70;55.90;;;;;;10271985;28;20070;-86
2022/05/26 14:52:48;;;;;;;0.90;0.20;;;23.10;54.40;;;;;;10271703;28;20046;-86
2022/05/26 14:57:50;;;;;;;0.20;0.15;;;23.60;54.40;;;;;;10291257;28;20055;-86
2022/05/26 15:02:53;;;;;;;2.42;0.10;;;23.60;53.70;;;;;;10295285;28;20046;-86
2022/05/26 15:07:55;;;;;;;3.92;0.20;;;23.40;54.80;;;;;;10296877;28;20053;-86
2022/05/26 15:12:56;;;;;;;1.40;0.20;;;23.70;53.60;;;;;;10279116;28;20048;-86
2022/05/26 15:17:58;;;;;;;1.65;0.20;;;24.00;53.10;;;;;;10291199;28;20395;-86
2022/05/26 15:23:00;;;;;;;1.65;0.15;;;24.30;53.60;;;;;;10282975;28;20381;-86
2022/05/26 15:28:02;;;;;;;0.35;0.10;;;24.50;52.10;;;;;;10297829;28;20061;-86
2022/05/26 15:33:04;;;;;;;4.57;0.20;;;24.80;50.80;;;;;;10299373;28;20686;-86
2022/05/26 15:38:06;;;;;;;1.08;0.20;;;25.10;50.50;;;;;;10281672;28;20061;-88
2022/05/26 15:43:09;;;;;;;1.13;0.25;;;25.30;50.60;;;;;;10299691;28;20488;-85
2022/05/26 15:48:13;;;;;;;2.92;0.20;;;25.20;50.60;;;;;;10299035;28;20051;-87
2022/05/26 15:53:15;;;;;;;2.05;0.10;;;25.40;50.70;;;;;;10265150;28;21528;-86
2022/05/26 15:58:19;;;;;;;1.17;0.20;;;25.50;50.40;;;;;;10290132;28;20509;-86
2022/05/26 16:03:23;;;;;;;1.10;0.10;;;25.40;49.90;;;;;;10300693;28;20051;-86
2022/05/26 16:08:25;;;;;;;1.38;0.22;;;24.90;51.70;;;;;;10285236;28;20050;-86
2022/05/26 16:13:27;;;;;;;0.93;0.20;;;24.90;52.00;;;;;;10295989;28;20046;-86
2022/05/26 16:18:33;;;;;;;0.88;0.20;;;24.50;51.60;;;;;;10264570;28;20086;-86
2022/05/26 16:23:46;;;;;;;1.50;0.30;;;24.20;53.20;;;;;;10250771;28;20138;-86
2022/05/26 16:28:49;;;;;;;1.30;0.20;;;24.00;53.90;;;;;;10243000;28;20057;-86
2022/05/26 16:33:52;;;;;;;1.27;0.20;;;23.70;54.00;;;;;;10249646;28;20134;-86
2022/05/26 16:38:55;;;;;;;0.40;0.10;;;23.80;54.20;;;;;;10267440;28;20267;-86
2022/05/26 16:43:57;;;;;;;0.95;0.10;;;23.30;54.70;;;;;;10258761;28;20118;-86
2022/05/26 16:49:00;;;;;;;2.35;0.40;;;23.10;55.50;;;;;;10261681;28;20051;-86
2022/05/26 16:54:04;;;;;;;2.50;0.30;;;23.20;55.40;;;;;;10267059;28;20059;-86
2022/05/26 16:59:05;;;;;;;1.42;0.20;;;22.90;55.60;;;;;;10266161;28;20046;-86
2022/05/26 17:04:08;;;;;;;0.40;0.30;;;22.80;56.30;;;;;;10256767;28;20054;-86
2022/05/26 17:09:22;;;;;;;0.63;0.17;;;23.00;56.10;;;;;;10257140;28;20051;-86
2022/05/26 17:25:06;;;;;;;1.25;0.20;;;22.50;57.60;;;;;;10260857;28;20099;-87
2022/05/26 17:30:12;;;;;;;0.22;0.20;;;22.40;57.90;;;;;;10286115;28;20046;-87
2022/05/26 17:35:16;;;;;;;2.38;0.20;;;22.40;57.60;;;;;;10269896;28;20058;-87
2022/05/26 17:40:18;;;;;;;0.80;0.20;;;22.50;57.80;;;;;;10288049;28;20046;-86
2022/05/26 17:45:20;;;;;;;0.98;0.30;;;22.30;58.00;;;;;;10297668;28;20045;-85
2022/05/26 17:50:22;;;;;;;1.25;0.20;;;22.30;58.80;;;;;;10289869;28;20460;-86
2022/05/26 17:55:24;;;;;;;5.05;0.15;;;22.10;59.20;;;;;;10282044;28;20529;-86
2022/05/26 18:05:46;;;;;;;0.68;0.20;;;21.50;60.50;;;;;;10301461;28;20468;-86
2022/05/26 18:10:49;;;;;;;5.25;0.30;;;21.40;61.10;;;;;;10301136;28;20393;-86
2022/05/26 18:15:50;;;;;;;1.45;0.30;;;21.30;61.50;;;;;;10272668;28;20059;-86
2022/05/26 18:20:55;;;;;;;1.30;0.40;;;21.20;62.10;;;;;;10287236;28;20054;-86
2022/05/26 18:25:57;;;;;;;2.70;0.30;;;21.10;62.40;;;;;;10285631;28;20062;-86
2022/05/26 18:31:37;;;;;;;1.98;0.40;;;21.20;62.80;;;;;;10287441;28;20046;-86
2022/05/26 18:36:39;;;;;;;3.38;0.20;;;21.00;63.20;;;;;;10270841;28;20136;-86
2022/05/26 18:41:41;;;;;;;2.53;0.30;;;21.00;64.00;;;;;;10286697;28;20521;-86
2022/05/26 18:46:44;;;;;;;2.65;0.52;;;20.90;64.50;;;;;;10309518;28;20054;-87
2022/05/26 18:51:46;;;;;;;1.92;0.30;;;20.80;64.80;;;;;;10282699;28;20137;-86
2022/05/26 18:56:48;;;;;;;2.65;0.57;;;20.60;65.20;;;;;;10288572;28;20058;-88
2022/05/26 19:01:52;;;;;;;1.08;0.38;;;20.50;65.70;;;;;;10315653;28;20054;-86
2022/05/26 19:06:54;;;;;;;2.33;0.30;;;20.40;66.10;;;;;;10281305;28;20076;-86
2022/05/26 19:11:56;;;;;;;1.95;0.38;;;20.30;66.70;;;;;;10270167;28;20454;-86
2022/05/26 19:17:04;;;;;;;0.90;0.30;;;20.30;67.50;;;;;;10277263;28;20054;-86
2022/05/26 19:22:06;;;;;;;4.07;0.30;;;20.20;67.50;;;;;;10306934;28;20445;-86
2022/05/26 19:27:14;;;;;;;0.75;0.30;;;20.10;68.80;;;;;;10285697;28;20137;-86
2022/05/26 19:32:18;;;;;;;1.63;0.30;;;20.00;68.40;;;;;;10301438;28;20100;-86
2022/05/26 19:37:20;;;;;;;4.88;0.55;;;19.90;68.80;;;;;;10280391;28;20064;-86
2022/05/26 19:42:30;;;;;;;1.80;0.40;;;19.80;69.50;;;;;;10295176;28;20565;-86
2022/05/26 19:47:33;;;;;;;2.40;0.32;;;19.70;69.70;;;;;;10278990;28;20114;-86
2022/05/26 19:52:42;;;;;;;7.85;0.60;;;19.60;70.30;;;;;;10303687;28;20089;-89
2022/05/26 19:57:44;;;;;;;2.22;0.30;;;19.50;70.50;;;;;;10296608;28;20050;-89
2022/05/26 20:02:46;;;;;;;1.70;0.40;;;19.40;71.20;;;;;;10292279;28;20137;-89
2022/05/26 20:07:49;;;;;;;2.17;0.40;;;19.30;71.80;;;;;;10309913;28;20090;-89
2022/05/26 20:12:53;;;;;;;0.50;0.25;;;19.30;72.50;;;;;;10276226;28;20050;-89
2022/05/26 20:17:58;;;;;;;2.55;0.40;;;19.20;72.70;;;;;;10245730;28;20062;-89
2022/05/26 20:23:01;;;;;;;2.73;0.40;;;19.10;73.10;;;;;;10254636;28;20075;-88
2022/05/26 20:33:28;;;;;;;2.38;0.38;;;19.10;74.30;;;;;;10241418;28;20511;-89
2022/05/26 20:38:31;;;;;;;4.85;0.40;;;19.00;74.40;;;;;;10272802;28;20058;-89
2022/05/26 20:43:34;;;;;;;0.90;0.50;;;18.90;74.50;;;;;;10266363;28;20058;-89
2022/05/26 20:48:42;;;;;;;3.17;0.30;;;18.80;75.10;;;;;;10277553;28;20505;-89
2022/05/26 20:53:50;;;;;;;1.42;0.40;;;18.80;75.60;;;;;;10278960;28;20050;-89
2022/05/26 20:58:53;;;;;;;2.03;0.30;;;18.70;76.10;;;;;;10263536;28;20055;-89
2022/05/26 21:03:55;;;;;;;5.13;0.47;;;18.60;76.60;;;;;;10271275;28;20051;-88
2022/05/26 21:08:58;;;;;;;1.85;0.30;;;18.50;77.40;;;;;;10273459;28;20050;-88
2022/05/26 21:14:01;;;;;;;1.27;0.45;;;18.40;78.40;;;;;;10263942;28;20050;-88
2022/05/26 21:19:03;;;;;;;2.35;0.30;;;18.30;79.10;;;;;;10296055;28;20058;-88
2022/05/26 21:24:05;;;;;;;1.45;0.30;;;18.20;79.90;;;;;;10315549;28;20192;-89
2022/05/26 21:29:07;;;;;;;1.27;0.30;;;18.10;80.50;;;;;;10300350;28;20062;-89
2022/05/26 21:34:11;;;;;;;1.13;0.30;;;18.00;81.50;;;;;;10293617;28;20064;-88
2022/05/26 21:39:13;;;;;;;1.20;0.45;;;17.90;82.50;;;;;;10299368;28;20057;-88
2022/05/26 21:44:14;;;;;;;4.95;0.40;;;17.90;83.00;;;;;;10306245;28;20042;-87
2022/05/26 21:49:18;;;;;;;2.20;0.40;;;17.90;83.80;;;;;;10294604;28;20400;-88
2022/05/26 21:54:28;;;;;;;2.47;0.30;;;17.80;84.30;;;;;;10290466;28;20042;-89
2022/05/26 21:59:31;;;;;;;3.03;0.30;;;17.70;85.20;;;;;;10288458;28;20137;-88
2022/05/26 22:10:40;;;;;;;1.20;0.32;;;17.60;85.90;;;;;;10304649;28;20062;-89
2022/05/26 22:15:19;;;;;;;1.75;0.20;;;17.60;87.20;;;;;;10283193;28;20058;-88
2022/05/26 22:20:21;;;;;;;1.70;0.25;;;17.60;87.80;;;;;;10312287;28;20054;-88
2022/05/26 22:25:23;;;;;;;0.47;0.20;;;17.60;88.40;;;;;;10292363;28;20389;-89
2022/05/26 22:30:25;;;;;;;3.95;0.30;;;17.50;88.70;;;;;;10295051;28;20068;-88
2022/05/26 22:35:29;;;;;;;5.22;0.30;;;17.60;89.10;;;;;;10299237;28;20057;-88
2022/05/26 22:40:42;;;;;;;4.63;0.40;;;17.60;89.60;;;;;;10291543;28;20062;-88
2022/05/26 22:45:49;;;;;;;1.10;0.40;;;17.60;90.00;;;;;;10297340;28;20453;-89
2022/05/26 22:50:52;;;;;;;2.92;0.30;;;17.50;90.40;;;;;;10279570;28;20047;-88
2022/05/26 22:55:55;;;;;;;1.67;0.22;;;17.50;90.90;;;;;;10272347;28;20134;-88
2022/05/26 23:00:58;;;;;;;0.35;0.30;;;17.50;91.20;;;;;;10277962;28;20086;-88
2022/05/26 23:06:00;;;;;;;5.20;0.30;;;17.50;91.40;;;;;;10308115;28;20046;-88
2022/05/26 23:11:03;;;;;;;7.55;0.40;;;17.40;91.70;;;;;;10285760;28;20051;-87
2022/05/26 23:16:07;;;;;;;1.40;0.30;;;17.40;92.10;;;;;;10275820;28;20046;-88
2022/05/26 23:21:19;;;;;;;2.20;0.40;;;17.40;92.30;;;;;;10305882;28;20133;-87
2022/05/26 23:26:21;;;;;;;0.68;0.30;;;17.40;92.60;;;;;;10288386;28;20053;-88
2022/05/26 23:31:23;;;;;;;2.20;0.40;;;17.40;92.90;;;;;;10293530;28;20067;-88
2022/05/26 23:36:25;;;;;;;0.77;0.40;;;17.40;93.00;;;;;;10294322;28;20046;-87
2022/05/26 23:46:47;;;;;;;1.30;0.32;;;17.40;93.80;;;;;;10299825;28;20440;-87
2022/05/26 23:51:52;;;;;;;0.70;0.35;;;17.40;93.80;;;;;;10288521;28;20043;-87
